Time;durP1;ratioP1;P1;durP2;ratioP2;P2;SDS_P1;SDS_P2;PMS_P1;PMS_P2;Temp;Humidity;BMP_temperature;BMP_pressure;BME280_temperature;BME280_humidity;BME280_pressure;Samples;Min_cycle;Max_cycle;Signal;HPM_P1;HPM_P2
2021/04/09 00:01:43;;;;;;;1.75;1.17;;;;;;;23.47;39.87;95790.25;5043427;28;20036;-76
2021/04/09 00:04:09;;;;;;;1.50;0.80;;;;;;;23.36;40.02;95779.28;5046959;28;20056;-76
2021/04/09 00:06:34;;;;;;;1.60;0.82;;;;;;;23.52;39.70;95806.59;5046852;28;20103;-76
2021/04/09 00:09:00;;;;;;;1.40;0.80;;;;;;;23.36;40.05;95782.00;5048265;28;20051;-77
2021/04/09 00:11:25;;;;;;;1.98;1.20;;;;;;;23.52;39.64;95797.69;5047184;28;20075;-76
2021/04/09 00:13:51;;;;;;;1.48;0.90;;;;;;;23.44;39.85;95785.78;5048450;28;20024;-76
2021/04/09 00:16:16;;;;;;;1.45;0.80;;;;;;;23.50;39.27;95794.72;5048469;28;20024;-76
2021/04/09 00:18:42;;;;;;;1.33;1.00;;;;;;;23.46;40.09;95791.47;5047030;28;20025;-76
2021/04/09 00:21:07;;;;;;;1.65;0.90;;;;;;;23.48;39.68;95802.63;5048174;28;20025;-76
2021/04/09 00:23:33;;;;;;;1.70;0.90;;;;;;;23.49;40.08;95799.41;5052418;28;20094;-76
2021/04/09 00:25:58;;;;;;;1.73;1.00;;;;;;;23.52;40.12;95803.13;5067641;28;20498;-76
2021/04/09 00:28:23;;;;;;;1.85;1.00;;;;;;;23.52;40.05;95797.69;5052473;28;20029;-76
2021/04/09 00:30:49;;;;;;;1.80;0.80;;;;;;;23.51;39.76;95790.72;5052205;28;20032;-76
2021/04/09 00:33:15;;;;;;;1.58;0.90;;;;;;;23.37;39.72;95769.88;5052445;28;20523;-76
2021/04/09 00:35:42;;;;;;;0.90;0.70;;;;;;;23.46;40.01;95788.75;5052206;28;20413;-76
2021/04/09 00:38:08;;;;;;;1.48;0.75;;;;;;;23.45;39.80;95789.97;5052020;28;20028;-76
2021/04/09 00:40:33;;;;;;;1.38;0.90;;;;;;;23.42;39.98;95780.03;5038379;28;20029;-75
2021/04/09 00:42:59;;;;;;;1.65;1.02;;;;;;;23.39;40.04;95781.78;5032016;28;20044;-76
2021/04/09 00:45:24;;;;;;;1.52;0.80;;;;;;;23.39;40.00;95781.03;5031878;28;20521;-76
2021/04/09 00:47:50;;;;;;;1.30;0.82;;;;;;;23.42;39.72;95788.22;5031925;28;20022;-76
2021/04/09 00:50:15;;;;;;;1.52;0.80;;;;;;;23.37;39.72;95780.78;5031993;28;20063;-76
2021/04/09 00:52:42;;;;;;;1.65;1.00;;;;;;;23.45;39.80;95787.25;5032136;28;20391;-76
2021/04/09 00:55:08;;;;;;;1.33;0.88;;;;;;;23.33;39.92;95774.81;5029070;28;20406;-76
2021/04/09 00:57:34;;;;;;;1.42;0.98;;;;;;;23.42;39.80;95788.22;5013757;28;20084;-75
2021/04/09 01:00:00;;;;;;;1.20;0.77;;;;;;;23.42;39.67;95789.00;5026999;28;20034;-76
2021/04/09 01:02:25;;;;;;;1.45;0.80;;;;;;;23.38;39.67;95782.28;4994587;28;20021;-76
2021/04/09 01:04:51;;;;;;;1.25;0.75;;;;;;;23.37;39.83;95788.97;5010296;28;20491;-76
2021/04/09 01:07:17;;;;;;;1.60;1.00;;;;;;;23.34;40.01;95787.22;5027372;28;20026;-76
2021/04/09 01:09:42;;;;;;;1.27;0.73;;;;;;;23.35;40.15;95783.25;5010792;28;20076;-76
2021/04/09 01:12:08;;;;;;;1.42;0.80;;;;;;;23.37;39.94;95791.69;5010361;28;20030;-75
2021/04/09 01:14:34;;;;;;;2.08;0.90;;;;;;;23.40;39.98;95796.16;5011856;28;20088;-76
2021/04/09 01:17:13;;;;;;;1.23;0.80;;;;;;;23.34;39.93;95786.47;5010791;28;20041;-77
2021/04/09 01:20:16;;;;;;;1.55;1.00;;;;;;;23.39;39.83;95802.84;5010542;28;20489;-76
2021/04/09 01:23:17;;;;;;;1.52;0.80;;;;;;;23.34;39.64;95792.66;5011945;28;20034;-76
2021/04/09 01:26:01;;;;;;;1.42;0.90;;;;;;;23.37;39.58;95799.88;4992281;28;20038;-76
2021/04/09 01:28:33;;;;;;;1.60;0.80;;;;;;;23.34;39.84;95791.94;5011683;28;20029;-76
2021/04/09 01:31:19;;;;;;;1.35;0.88;;;;;;;23.31;39.88;95799.09;5019865;28;20122;-76
2021/04/09 01:33:47;;;;;;;1.88;0.88;;;;;;;23.32;40.03;95800.59;5050975;28;20417;-76
2021/04/09 01:36:18;;;;;;;1.50;1.00;;;;;;;23.34;39.59;95787.22;5033647;28;20078;-76
2021/04/09 01:38:55;;;;;;;1.30;0.80;;;;;;;23.34;39.72;95787.22;5050346;28;20025;-76
2021/04/09 01:41:21;;;;;;;1.20;0.65;;;;;;;23.36;39.55;95790.19;5049851;28;20017;-75
2021/04/09 01:43:46;;;;;;;1.73;0.90;;;;;;;23.27;39.88;95776.78;5050803;28;20032;-76
2021/04/09 01:46:12;;;;;;;1.23;0.80;;;;;;;23.33;39.51;95782.97;5049562;28;20032;-76
2021/04/09 01:48:39;;;;;;;1.63;0.90;;;;;;;23.31;39.66;95782.75;5050476;28;20029;-76
2021/04/09 01:51:07;;;;;;;1.35;0.82;;;;;;;23.30;39.89;95786.69;5033275;28;20293;-76
2021/04/09 01:53:33;;;;;;;1.50;0.68;;;;;;;23.21;39.69;95778.00;5049931;28;20021;-76
2021/04/09 01:55:58;;;;;;;1.45;0.80;;;;;;;23.27;39.54;95787.66;5032664;28;20029;-76
2021/04/09 01:58:24;;;;;;;1.10;0.70;;;;;;;23.16;39.64;95765.84;5049591;28;20036;-76
2021/04/09 02:00:49;;;;;;;1.10;0.60;;;;;;;23.33;39.66;95791.16;5049520;28;20036;-76
2021/04/09 02:03:18;;;;;;;1.13;0.70;;;;;;;23.37;39.57;95797.13;5049005;28;20112;-76
2021/04/09 02:05:43;;;;;;;1.63;0.90;;;;;;;23.34;39.66;95803.56;5049650;28;20497;-75
2021/04/09 02:08:09;;;;;;;1.25;0.80;;;;;;;23.26;39.41;95785.44;5049036;28;20017;-75
2021/04/09 02:10:34;;;;;;;1.60;0.90;;;;;;;23.20;39.74;95777.25;5032701;28;20039;-76
2021/04/09 02:13:00;;;;;;;1.50;1.08;;;;;;;23.23;39.51;95780.97;5049425;28;20116;-75
2021/04/09 02:15:25;;;;;;;1.40;0.90;;;;;;;23.14;39.57;95767.56;5048901;28;20436;-76
2021/04/09 02:17:51;;;;;;;1.50;0.80;;;;;;;23.30;39.45;95794.88;5049150;28;20033;-76
2021/04/09 02:20:17;;;;;;;0.95;0.65;;;;;;;23.32;39.63;95811.50;5050563;28;20029;-75
2021/04/09 02:22:43;;;;;;;1.40;0.85;;;;;;;23.30;39.51;95808.50;5048399;28;20074;-75
2021/04/09 02:25:09;;;;;;;1.30;0.80;;;;;;;23.31;39.30;95818.16;5049136;28;20407;-76
2021/04/09 02:27:35;;;;;;;1.63;0.82;;;;;;;23.31;39.58;95810.00;5050248;28;20029;-76
2021/04/09 02:30:00;;;;;;;1.48;0.80;;;;;;;23.25;39.67;95811.94;5032324;28;20497;-76
2021/04/09 02:32:26;;;;;;;1.10;0.70;;;;;;;23.26;39.36;95818.91;5048594;28;20071;-76
2021/04/09 02:34:51;;;;;;;1.02;0.80;;;;;;;23.25;39.63;95817.41;5065231;28;20078;-76
2021/04/09 02:37:18;;;;;;;1.77;1.20;;;;;;;23.23;39.49;95819.88;5049461;28;20079;-75
2021/04/09 02:39:43;;;;;;;2.45;0.85;;;;;;;23.20;39.36;95809.94;5047595;28;20029;-76
2021/04/09 02:42:09;;;;;;;1.25;0.85;;;;;;;23.29;39.71;95823.38;5047253;28;20024;-76
2021/04/09 02:44:34;;;;;;;1.75;0.80;;;;;;;23.30;39.57;95819.41;5048117;28;20604;-76
2021/04/09 02:47:07;;;;;;;1.45;0.85;;;;;;;23.27;39.36;95825.81;5014747;28;20482;-76
2021/04/09 02:49:41;;;;;;;1.50;0.68;;;;;;;23.28;39.35;95826.59;5023564;28;20022;-75
2021/04/09 02:52:08;;;;;;;1.25;0.80;;;;;;;23.26;39.36;95818.91;5027663;28;20032;-76
2021/04/09 02:54:34;;;;;;;1.80;0.80;;;;;;;23.24;39.33;95810.44;5043657;28;20049;-76
2021/04/09 02:57:00;;;;;;;1.45;0.80;;;;;;;23.23;39.33;95814.44;5037888;28;20572;-76
2021/04/09 02:59:26;;;;;;;1.65;1.00;;;;;;;23.23;39.19;95813.66;5019787;28;20053;-76
2021/04/09 03:01:51;;;;;;;1.40;0.70;;;;;;;23.24;39.42;95815.91;5007342;28;20088;-76
2021/04/09 03:04:17;;;;;;;1.17;0.70;;;;;;;23.18;39.38;95806.94;5034879;28;20510;-76
2021/04/09 03:06:43;;;;;;;2.80;0.73;;;;;;;23.26;39.29;95815.41;5048366;28;20082;-76
2021/04/09 03:09:08;;;;;;;1.92;0.90;;;;;;;23.25;39.37;95817.41;5048859;28;20467;-76
2021/04/09 03:11:34;;;;;;;1.15;0.73;;;;;;;23.28;39.04;95821.88;5045278;28;20025;-76
2021/04/09 03:14:00;;;;;;;2.85;0.70;;;;;;;23.27;39.28;95825.81;5028289;28;20029;-76
2021/04/09 03:16:25;;;;;;;1.52;0.70;;;;;;;23.24;39.06;95821.34;5017136;28;20033;-76
2021/04/09 03:18:51;;;;;;;1.45;0.90;;;;;;;23.25;39.15;95824.84;5024835;28;20410;-76
2021/04/09 03:21:16;;;;;;;1.40;0.70;;;;;;;23.23;39.17;95825.31;5009552;28;20080;-76
2021/04/09 03:23:41;;;;;;;1.88;0.65;;;;;;;23.21;39.56;95833.22;5009445;28;20080;-75
2021/04/09 03:26:07;;;;;;;1.33;0.70;;;;;;;23.20;39.10;95831.75;5009236;28;20057;-76
2021/04/09 03:28:32;;;;;;;1.85;0.80;;;;;;;23.21;39.30;95832.50;5035570;28;20486;-75
2021/04/09 03:30:58;;;;;;;2.60;0.68;;;;;;;23.20;39.19;95831.00;5064327;28;20024;-75
2021/04/09 03:33:26;;;;;;;1.45;0.80;;;;;;;23.24;39.40;95837.69;5049034;28;20092;-76
2021/04/09 03:35:51;;;;;;;1.00;0.52;;;;;;;23.20;39.26;95826.31;5048891;28;20029;-76
2021/04/09 03:38:17;;;;;;;1.25;0.70;;;;;;;23.22;38.96;95834.00;5027214;28;20026;-76
2021/04/09 03:40:43;;;;;;;1.85;0.70;;;;;;;23.16;39.13;95830.50;5009094;28;20055;-76
2021/04/09 03:43:12;;;;;;;1.02;0.70;;;;;;;23.10;39.24;95833.19;5008168;28;20026;-76
2021/04/09 03:45:38;;;;;;;1.53;0.70;;;;;;;23.10;39.26;95833.19;5008242;28;20467;-75
2021/04/09 03:48:03;;;;;;;1.08;0.70;;;;;;;23.18;38.97;95850.56;5008038;28;20264;-76
2021/04/09 03:50:29;;;;;;;1.95;0.60;;;;;;;23.18;39.24;95861.44;5009403;28;20113;-76
2021/04/09 03:52:54;;;;;;;1.42;0.73;;;;;;;23.22;39.22;95863.97;5007990;28;20037;-76
2021/04/09 03:55:20;;;;;;;1.80;0.90;;;;;;;23.22;39.17;95867.44;5028569;28;20048;-76
2021/04/09 03:57:45;;;;;;;1.80;0.80;;;;;;;23.19;39.13;95862.94;5064137;28;20045;-76
2021/04/09 04:00:11;;;;;;;1.38;0.75;;;;;;;23.24;39.01;95870.41;5064018;28;20490;-76
2021/04/09 04:02:37;;;;;;;1.20;0.75;;;;;;;23.24;39.04;95875.84;5048868;28;20166;-76
2021/04/09 04:05:03;;;;;;;1.40;0.80;;;;;;;23.23;39.06;95874.38;5047056;28;20040;-75
2021/04/09 04:07:28;;;;;;;1.38;0.90;;;;;;;23.13;39.21;95867.63;5048477;28;20070;-75
2021/04/09 04:09:54;;;;;;;1.70;0.90;;;;;;;23.19;39.04;95879.31;5047216;28;20029;-76
2021/04/09 04:12:19;;;;;;;1.15;0.55;;;;;;;23.16;39.06;95877.53;5048670;28;20029;-76
2021/04/09 04:14:45;;;;;;;1.48;0.70;;;;;;;23.20;38.90;95891.69;5019603;28;20037;-75
2021/04/09 04:17:10;;;;;;;1.30;0.88;;;;;;;23.23;38.98;95890.72;5008978;28;20041;-75
2021/04/09 04:19:35;;;;;;;1.00;0.60;;;;;;;23.20;38.81;95886.25;5035141;28;20045;-75
2021/04/09 04:22:01;;;;;;;1.38;0.90;;;;;;;23.21;39.13;95897.88;5050849;28;20135;-75
2021/04/09 04:24:26;;;;;;;2.35;0.80;;;;;;;23.17;39.32;95887.22;5042529;28;20032;-74
2021/04/09 04:26:52;;;;;;;0.95;0.73;;;;;;;23.15;39.18;95897.88;5042388;28;20083;-74
2021/04/09 04:29:17;;;;;;;1.67;0.80;;;;;;;23.22;39.33;95897.41;5051996;28;20259;-74
2021/04/09 04:31:43;;;;;;;1.40;1.00;;;;;;;23.29;38.86;95899.69;5046124;28;20025;-74
2021/04/09 04:34:08;;;;;;;1.33;0.80;;;;;;;23.35;38.79;95903.19;5039929;28;20464;-74
2021/04/09 04:36:34;;;;;;;1.00;0.68;;;;;;;23.41;38.81;95906.69;5046680;28;20464;-74
2021/04/09 04:39:00;;;;;;;1.27;0.80;;;;;;;23.51;38.23;95902.50;5037658;28;20486;-73
2021/04/09 04:41:25;;;;;;;1.30;1.00;;;;;;;23.55;38.27;95906.50;5043243;28;20504;-76
2021/04/09 04:43:51;;;;;;;1.25;0.77;;;;;;;23.62;37.95;95910.75;5055929;28;20024;-77
2021/04/09 04:46:16;;;;;;;1.13;0.80;;;;;;;23.70;38.19;95917.25;5031134;28;20009;-77
2021/04/09 04:48:41;;;;;;;1.65;0.90;;;;;;;23.78;38.13;95912.81;5033873;28;20489;-77
2021/04/09 04:51:07;;;;;;;1.52;0.90;;;;;;;23.88;37.75;95918.34;5028864;28;20038;-77
2021/04/09 04:53:32;;;;;;;1.77;0.80;;;;;;;23.97;37.30;95929.00;4978603;28;20048;-77
2021/04/09 04:55:58;;;;;;;1.83;0.80;;;;;;;24.08;37.46;95923.63;5028330;28;20029;-75
2021/04/09 04:58:23;;;;;;;1.45;0.90;;;;;;;24.18;37.35;95929.59;5033919;28;20036;-77
2021/04/09 05:00:49;;;;;;;1.45;0.85;;;;;;;24.23;37.27;95926.88;5042356;28;20029;-78
2021/04/09 05:03:14;;;;;;;5.28;1.35;;;;;;;24.22;36.01;95936.28;5029289;28;20018;-76
2021/04/09 05:05:40;;;;;;;3.30;1.80;;;;;;;24.21;34.28;95934.78;5032233;28;20029;-75
2021/04/09 05:08:05;;;;;;;4.05;1.60;;;;;;;24.30;34.49;95934.56;5027288;28;20026;-77
2021/04/09 05:10:31;;;;;;;2.55;1.50;;;;;;;24.39;34.81;95950.75;5039644;28;20028;-74
2021/04/09 05:12:56;;;;;;;3.35;1.52;;;;;;;24.50;34.21;95948.06;5036326;28;20490;-74
2021/04/09 05:15:22;;;;;;;43.92;16.88;;;;;;;24.64;34.46;95949.81;5031020;28;20030;-73
2021/04/09 05:17:47;;;;;;;85.13;38.10;;;;;;;24.68;34.92;95950.31;5026834;28;20032;-75
2021/04/09 05:20:13;;;;;;;102.85;50.08;;;;;;;24.80;34.58;95951.81;5044212;28;20429;-74
2021/04/09 05:22:39;;;;;;;147.32;77.90;;;;;;;24.86;34.43;95962.25;5042685;28;20055;-76
2021/04/09 05:25:05;;;;;;;158.80;83.72;;;;;;;24.79;34.58;95939.41;5043700;28;20032;-69
2021/04/09 05:27:30;;;;;;;147.27;82.07;;;;;;;24.93;34.58;95939.91;5042933;28;20041;-69
2021/04/09 05:29:56;;;;;;;148.50;81.28;;;;;;;25.07;34.38;95966.25;5046888;28;20551;-75
2021/04/09 05:32:21;;;;;;;149.20;80.97;;;;;;;25.10;34.36;95954.34;5054696;28;20025;-77
2021/04/09 05:34:47;;;;;;;147.38;81.68;;;;;;;25.10;34.36;95946.13;5029849;28;20021;-75
2021/04/09 05:37:12;;;;;;;133.50;76.50;;;;;;;25.20;34.32;95963.78;5028523;28;20017;-76
2021/04/09 05:39:38;;;;;;;127.13;71.47;;;;;;;25.19;34.52;95956.81;5030769;28;20033;-75
2021/04/09 05:42:04;;;;;;;123.57;70.78;;;;;;;25.32;34.07;95976.19;5029254;28;20033;-78
2021/04/09 05:44:32;;;;;;;121.32;68.07;;;;;;;25.31;34.38;95974.69;5027478;28;20102;-79
2021/04/09 05:46:58;;;;;;;118.57;65.35;;;;;;;25.33;34.10;95967.50;5045379;28;20041;-77
2021/04/09 05:49:23;;;;;;;117.75;66.22;;;;;;;25.43;34.56;95982.38;5038370;28;20037;-77
2021/04/09 05:51:49;;;;;;;108.72;60.85;;;;;;;25.41;34.17;95973.19;5034966;28;20096;-83
2021/04/09 05:54:14;;;;;;;109.25;63.05;;;;;;;25.42;34.17;95971.94;5023360;28;20410;-80
2021/04/09 05:56:40;;;;;;;106.50;60.80;;;;;;;25.53;34.50;95980.13;5044639;28;20029;-77
2021/04/09 05:59:05;;;;;;;104.25;59.17;;;;;;;25.47;33.98;95973.91;5035997;28;20037;-79
2021/04/09 06:01:30;;;;;;;105.80;59.33;;;;;;;25.59;34.33;95994.53;5046001;28;20025;-81
2021/04/09 06:03:56;;;;;;;95.68;55.08;;;;;;;25.69;33.82;95998.53;5031533;28;20106;-74
2021/04/09 06:06:22;;;;;;;92.93;54.38;;;;;;;25.79;34.15;95998.50;5043663;28;20033;-76
2021/04/09 06:08:47;;;;;;;92.18;51.10;;;;;;;25.84;33.75;95997.75;5036182;28;20037;-79
2021/04/09 06:11:12;;;;;;;86.43;49.17;;;;;;;25.83;33.79;95985.31;5038071;28;20036;-78
2021/04/09 06:13:38;;;;;;;84.05;47.60;;;;;;;25.90;34.02;95997.72;5020149;28;20041;-81
2021/04/09 06:16:05;;;;;;;80.72;45.35;;;;;;;25.90;34.08;95987.53;5051811;28;20041;-83
2021/04/09 06:18:30;;;;;;;78.57;44.50;;;;;;;25.89;33.82;95980.56;5011277;28;20029;-79
2021/04/09 06:20:56;;;;;;;77.50;43.92;;;;;;;25.97;33.78;95997.22;5029085;28;20418;-88
2021/04/09 06:23:21;;;;;;;69.78;41.78;;;;;;;26.11;33.91;95991.44;5027117;28;20075;-73
2021/04/09 06:25:47;;;;;;;75.28;42.00;;;;;;;26.12;33.63;95992.94;5037653;28;20414;-76
2021/04/09 06:28:12;;;;;;;71.00;40.42;;;;;;;26.16;33.75;95993.41;5027499;28;20023;-77
2021/04/09 06:30:37;;;;;;;67.22;40.17;;;;;;;26.21;33.44;95997.38;5038131;28;20475;-76
2021/04/09 06:33:04;;;;;;;70.63;39.35;;;;;;;26.19;33.76;95992.41;5027225;28;20033;-76
2021/04/09 06:35:30;;;;;;;64.72;38.05;;;;;;;26.14;33.14;95990.41;5046181;28;20036;-79
2021/04/09 06:37:55;;;;;;;65.00;37.20;;;;;;;26.23;33.56;96003.81;5021961;28;20433;-79
2021/04/09 06:40:21;;;;;;;63.00;35.83;;;;;;;26.26;33.48;96002.81;5032818;28;20168;-81
2021/04/09 06:42:46;;;;;;;56.95;34.67;;;;;;;26.32;33.31;96011.78;5038357;28;20051;-80
2021/04/09 06:45:13;;;;;;;56.67;33.72;;;;;;;26.23;33.19;96003.09;5011493;28;20028;-72
2021/04/09 06:47:38;;;;;;;57.67;34.30;;;;;;;26.21;33.04;96011.06;5041679;28;20334;-73
2021/04/09 06:50:04;;;;;;;52.15;33.90;;;;;;;26.20;33.13;96010.31;5045498;28;20021;-72
2021/04/09 06:52:30;;;;;;;52.95;31.42;;;;;;;26.12;33.21;96009.34;5055142;28;20030;-73
2021/04/09 06:54:55;;;;;;;52.28;32.17;;;;;;;26.10;33.21;96011.84;5044790;28;20032;-72
2021/04/09 06:57:22;;;;;;;51.15;31.95;;;;;;;26.09;33.39;96021.31;5038476;28;20032;-73
2021/04/09 06:59:47;;;;;;;50.10;29.25;;;;;;;26.05;32.89;96020.84;5039898;28;20029;-72
2021/04/09 07:02:14;;;;;;;49.33;29.80;;;;;;;25.93;33.36;96013.91;5053246;28;20029;-72
2021/04/09 07:04:40;;;;;;;47.70;28.17;;;;;;;25.92;33.11;96011.69;5043541;28;20464;-73
2021/04/09 07:07:12;;;;;;;45.95;27.20;;;;;;;25.86;33.26;96014.41;5044279;28;20035;-72
2021/04/09 07:09:38;;;;;;;43.33;26.33;;;;;;;25.77;32.95;96021.41;5039004;28;20116;-72
2021/04/09 07:12:03;;;;;;;44.55;26.60;;;;;;;25.70;33.31;96016.44;5024731;28;20060;-71
2021/04/09 07:14:48;;;;;;;41.67;25.85;;;;;;;25.75;33.17;96018.44;5038550;28;20464;-71
2021/04/09 07:17:23;;;;;;;42.42;25.23;;;;;;;25.66;33.06;96026.91;5042378;28;20112;-71
2021/04/09 07:19:49;;;;;;;40.85;24.73;;;;;;;25.59;33.31;96021.91;5041317;28;20041;-71
2021/04/09 07:22:14;;;;;;;39.38;23.90;;;;;;;25.51;33.15;96016.19;5042804;28;20026;-71
2021/04/09 07:24:40;;;;;;;40.05;23.30;;;;;;;25.49;33.57;96007.00;5040770;28;20028;-84
2021/04/09 07:27:05;;;;;;;36.35;22.60;;;;;;;25.47;33.45;96009.47;5044752;28;20035;-85
2021/04/09 07:29:31;;;;;;;37.30;22.67;;;;;;;25.45;33.77;96022.91;5041815;28;20029;-71
2021/04/09 07:31:59;;;;;;;37.42;22.55;;;;;;;25.37;33.47;96021.94;5043412;28;20036;-71
2021/04/09 07:34:25;;;;;;;36.50;21.38;;;;;;;25.27;33.41;96017.94;5041019;28;20258;-72
2021/04/09 07:36:54;;;;;;;34.28;20.60;;;;;;;25.22;33.86;96021.44;5045874;28;20083;-71
2021/04/09 07:39:35;;;;;;;31.77;18.92;;;;;;;25.20;33.41;96018.47;5017703;28;20048;-71
2021/04/09 07:42:10;;;;;;;31.63;19.42;;;;;;;25.20;34.02;96018.47;5043346;28;20009;-71
2021/04/09 07:44:38;;;;;;;30.48;19.95;;;;;;;25.18;33.58;96020.91;5040706;28;20087;-71
2021/04/09 07:47:29;;;;;;;31.80;18.80;;;;;;;25.12;33.78;96033.84;5059982;28;20103;-71
2021/04/09 07:50:04;;;;;;;31.25;18.60;;;;;;;25.06;33.74;96024.91;5042345;28;20115;-71
2021/04/09 07:52:46;;;;;;;28.52;17.02;;;;;;;25.01;33.85;96028.38;5038656;28;20034;-71
2021/04/09 07:55:20;;;;;;;27.02;16.42;;;;;;;25.01;33.42;96028.38;5058725;28;20078;-71
2021/04/09 07:57:45;;;;;;;28.20;16.70;;;;;;;24.96;33.68;96015.44;5039169;28;20026;-71
2021/04/09 08:00:15;;;;;;;28.70;17.08;;;;;;;24.99;33.92;96033.59;5044692;28;20025;-71
2021/04/09 08:02:40;;;;;;;25.85;17.80;;;;;;;24.98;33.44;96034.81;5039995;28;20024;-70
2021/04/09 08:05:07;;;;;;;26.83;17.40;;;;;;;24.94;33.68;96020.63;5040076;28;20049;-70
2021/04/09 08:07:33;;;;;;;28.48;17.45;;;;;;;24.95;33.56;96019.41;5046006;28;20021;-71
2021/04/09 08:09:59;;;;;;;25.73;16.70;;;;;;;24.89;33.88;96004.97;5047220;28;20433;-70
2021/04/09 08:12:31;;;;;;;26.88;17.45;;;;;;;24.97;33.81;96021.63;5045794;28;20025;-73
2021/04/09 08:15:10;;;;;;;27.45;17.20;;;;;;;24.94;33.61;96028.81;5043165;28;20022;-73
2021/04/09 08:17:36;;;;;;;27.98;16.27;;;;;;;24.80;33.84;96017.38;5032111;28;20039;-73
2021/04/09 08:20:02;;;;;;;25.70;16.92;;;;;;;24.83;34.26;96019.88;5041595;28;20032;-73
2021/04/09 08:22:27;;;;;;;25.38;15.82;;;;;;;24.82;33.68;96020.38;5010279;28;20024;-73
2021/04/09 08:24:53;;;;;;;23.38;15.82;;;;;;;24.78;33.83;96031.53;5037888;28;20075;-72
2021/04/09 08:27:18;;;;;;;26.13;16.05;;;;;;;24.78;33.75;96025.31;5042574;28;20078;-73
2021/04/09 08:29:44;;;;;;;22.88;15.63;;;;;;;24.80;34.24;96028.31;5041269;28;20017;-70
2021/04/09 08:32:10;;;;;;;23.35;15.50;;;;;;;24.80;33.56;96033.75;5057441;28;20498;-71
2021/04/09 08:34:36;;;;;;;25.05;15.45;;;;;;;24.80;34.32;96018.13;5041168;28;20110;-71
2021/04/09 08:37:02;;;;;;;24.52;14.80;;;;;;;24.80;33.98;96025.56;5042136;28;20028;-71
2021/04/09 08:39:27;;;;;;;23.10;14.88;;;;;;;24.75;33.93;96020.84;5037707;28;20032;-71
2021/04/09 08:41:53;;;;;;;21.15;14.52;;;;;;;24.75;33.64;96026.31;5043812;28;20501;-71
2021/04/09 08:44:18;;;;;;;22.42;14.82;;;;;;;24.72;33.80;96017.09;5035897;28;20033;-71
2021/04/09 08:46:45;;;;;;;23.90;14.85;;;;;;;24.71;33.80;96020.34;5037083;28;20531;-71
2021/04/09 08:49:11;;;;;;;21.25;14.25;;;;;;;24.66;33.67;96012.88;5041074;28;20052;-71
2021/04/09 08:51:37;;;;;;;23.48;14.23;;;;;;;24.64;33.63;96009.91;5046033;28;20044;-71
2021/04/09 08:54:15;;;;;;;22.33;13.85;;;;;;;24.69;33.79;96022.81;5040914;28;20033;-71
2021/04/09 08:56:40;;;;;;;21.65;14.10;;;;;;;24.63;33.60;96020.06;5011703;28;20036;-71
2021/04/09 08:59:05;;;;;;;20.00;12.98;;;;;;;24.65;33.78;96022.31;5029415;28;20029;-71
2021/04/09 09:01:31;;;;;;;19.23;13.05;;;;;;;24.64;34.08;96020.84;5045740;28;20021;-71
2021/04/09 09:04:21;;;;;;;20.27;12.75;;;;;;;24.60;33.99;96031.25;5038062;28;20045;-72
2021/04/09 09:06:48;;;;;;;19.17;12.73;;;;;;;24.61;34.07;96038.94;5047407;28;20493;-72
2021/04/09 09:09:29;;;;;;;18.25;12.68;;;;;;;24.56;34.06;96042.41;5046893;28;20036;-85
2021/04/09 09:11:56;;;;;;;20.02;12.90;;;;;;;24.56;34.51;96028.03;5030976;28;20029;-84
2021/04/09 09:14:34;;;;;;;19.73;12.90;;;;;;;24.60;34.44;96032.00;5049408;28;20399;-83
2021/04/09 09:17:18;;;;;;;22.20;13.68;;;;;;;24.62;34.73;96026.78;5039537;28;20414;-83
2021/04/09 09:19:47;;;;;;;18.33;12.85;;;;;;;24.64;35.05;96020.84;5029190;28;20021;-82
2021/04/09 09:22:14;;;;;;;19.30;12.03;;;;;;;24.57;35.27;96015.84;5030627;28;20013;-82
2021/04/09 09:25:02;;;;;;;19.38;12.88;;;;;;;24.67;35.28;96026.03;5027829;28;20276;-82
2021/04/09 09:27:47;;;;;;;16.73;11.63;;;;;;;24.76;35.32;96027.81;5024510;28;20041;-81
2021/04/09 09:30:36;;;;;;;19.42;12.13;;;;;;;24.82;34.99;96026.56;5035088;28;20037;-81
2021/04/09 09:33:21;;;;;;;20.13;13.10;;;;;;;24.81;34.85;96007.94;5026917;28;20033;-81
2021/04/09 09:35:55;;;;;;;17.75;12.43;;;;;;;25.00;34.94;96021.41;5036514;28;20028;-80
2021/04/09 09:38:45;;;;;;;16.00;11.77;;;;;;;25.13;34.69;96008.00;5029635;28;20098;-79
2021/04/09 09:41:10;;;;;;;17.80;11.52;;;;;;;25.14;34.34;96004.03;5038639;28;20041;-86
2021/04/09 09:43:36;;;;;;;17.45;11.63;;;;;;;25.29;33.76;96010.00;5049067;28;20029;-80
2021/04/09 09:46:02;;;;;;;18.73;11.85;;;;;;;25.35;34.08;96003.28;5036587;28;20028;-79
2021/04/09 09:48:28;;;;;;;17.70;11.48;;;;;;;25.36;34.12;95995.81;5058599;28;20021;-84
2021/04/09 09:50:53;;;;;;;16.52;11.25;;;;;;;25.49;34.01;96007.00;5044162;28;20029;-84
2021/04/09 09:53:19;;;;;;;18.65;11.55;;;;;;;25.48;34.14;95997.28;5032585;28;20083;-82
2021/04/09 09:55:47;;;;;;;15.90;10.48;;;;;;;25.65;33.57;96003.50;5025232;28;20024;-80
2021/04/09 09:58:23;;;;;;;14.07;10.27;;;;;;;25.72;33.95;96008.47;5043885;28;20608;-81
2021/04/09 10:00:58;;;;;;;16.00;10.45;;;;;;;25.75;33.57;96002.00;5023552;28;20030;-85
2021/04/09 10:03:29;;;;;;;15.65;10.77;;;;;;;25.86;33.63;95998.00;5038010;28;20395;-80
2021/04/09 10:06:02;;;;;;;14.63;10.75;;;;;;;25.89;33.50;95999.72;5028560;28;20041;-79
2021/04/09 10:08:29;;;;;;;14.45;10.63;;;;;;;25.93;33.55;95997.50;5034990;28;20032;-90
2021/04/09 10:11:02;;;;;;;15.27;10.07;;;;;;;25.91;33.22;95994.50;5028298;28;20013;-80
2021/04/09 10:13:33;;;;;;;16.95;10.50;;;;;;;26.10;33.26;95995.44;5044756;28;20327;-79
2021/04/09 10:16:15;;;;;;;14.38;9.48;;;;;;;26.15;32.77;95997.41;5040607;28;20108;-82
2021/04/09 10:18:52;;;;;;;13.32;9.50;;;;;;;26.20;32.55;95993.88;5060209;28;20032;-87
2021/04/09 10:21:17;;;;;;;12.57;8.82;;;;;;;26.24;32.57;95983.41;5026933;28;20060;-81
2021/04/09 10:23:44;;;;;;;13.02;9.30;;;;;;;26.25;32.62;95979.44;5041023;28;20057;-80
2021/04/09 10:26:10;;;;;;;10.30;8.95;;;;;;;26.38;32.57;95971.41;5025349;28;20025;-83
2021/04/09 10:28:36;;;;;;;13.38;9.88;;;;;;;26.37;32.41;95972.69;5049654;28;20025;-85
2021/04/09 10:31:12;;;;;;;13.38;9.15;;;;;;;26.47;32.20;95968.38;5026426;28;20028;-82
2021/04/09 10:33:42;;;;;;;12.55;9.48;;;;;;;26.47;32.20;95962.91;5032781;28;20032;-83
2021/04/09 10:36:17;;;;;;;12.48;8.35;;;;;;;26.72;32.12;95967.25;5020315;28;20029;-85
2021/04/09 10:38:43;;;;;;;12.65;9.40;;;;;;;26.75;32.00;95955.28;5046842;28;20039;-78
2021/04/09 10:41:20;;;;;;;11.60;8.52;;;;;;;26.75;31.65;95963.50;5039287;28;20477;-77
2021/04/09 10:43:46;;;;;;;11.40;8.45;;;;;;;26.72;31.71;95967.25;5046656;28;20127;-77
2021/04/09 10:46:12;;;;;;;11.23;8.50;;;;;;;26.62;31.54;95952.34;5039224;28;20028;-76
2021/04/09 10:48:39;;;;;;;11.00;8.57;;;;;;;26.73;31.72;95957.78;5041773;28;20104;-78
2021/04/09 10:51:06;;;;;;;11.23;8.45;;;;;;;26.80;31.60;95950.50;5039195;28;20025;-77
2021/04/09 10:53:32;;;;;;;11.55;7.90;;;;;;;26.86;31.44;95955.91;5044800;28;20040;-79
2021/04/09 10:56:04;;;;;;;12.57;8.05;;;;;;;26.94;31.22;95959.66;5062290;28;20020;-80
2021/04/09 10:58:30;;;;;;;11.98;7.80;;;;;;;26.88;31.34;95937.72;5035104;28;20056;-80
2021/04/09 11:00:56;;;;;;;10.93;7.95;;;;;;;26.97;31.26;95950.41;5020893;28;20499;-71
2021/04/09 11:03:21;;;;;;;11.45;8.00;;;;;;;27.00;31.26;95950.13;5041005;28;20480;-71
2021/04/09 11:05:47;;;;;;;11.73;7.93;;;;;;;26.98;31.33;95947.16;5038321;28;20031;-70
2021/04/09 11:08:31;;;;;;;9.73;7.38;;;;;;;26.98;31.19;95947.16;5046372;28;20024;-71
2021/04/09 11:11:00;;;;;;;9.98;7.32;;;;;;;26.99;31.14;95940.38;5032886;28;20516;-71
2021/04/09 11:13:33;;;;;;;9.05;7.05;;;;;;;26.96;31.12;95938.66;5050709;28;20074;-70
2021/04/09 11:15:58;;;;;;;8.23;7.05;;;;;;;26.93;30.96;95945.19;5040771;28;20033;-71
2021/04/09 11:18:46;;;;;;;8.32;7.35;;;;;;;26.93;31.10;95939.69;5041340;28;20075;-70
2021/04/09 11:21:11;;;;;;;8.75;6.78;;;;;;;26.87;31.00;95930.75;5026967;28;20105;-71
2021/04/09 11:23:38;;;;;;;10.55;7.38;;;;;;;26.85;31.25;95933.25;5047209;28;20032;-70
2021/04/09 11:26:04;;;;;;;9.98;7.38;;;;;;;26.80;31.34;95925.81;5046607;28;20521;-70
2021/04/09 11:28:29;;;;;;;8.68;6.75;;;;;;;26.77;31.27;95932.31;5027273;28;20025;-71